Terminal Aerodrome Forecast
Issued by NWS

Home | Current Version | Previous Version | Text Only | Print | Product List | Glossary On
Versions: 1 2 3 4 5 6 7 8 9 10 11 12 13 14 15 16
484
FTUS43 KGRB 290022 AAA
TAFMTW
TAF AMD
KMTW 290022Z 2900/2924 17012G22KT P6SM SCT005 BKN015 WS020/23040KT
      TEMPO 2900/2904 4SM -SHRA BKN005
     FM290400 20010G20KT P6SM BKN025 WS020/25040KT
     FM291200 24012G18KT P6SM SCT040
     FM291800 26013G21KT P6SM BKN050=

USA.gov is the U.S. government's official web portal to all federal, state and local government web resources and services.